Time;durP1;ratioP1;P1;durP2;ratioP2;P2;SDS_P1;SDS_P2;PMS_P1;PMS_P2;Temp;Humidity;BMP_temperature;BMP_pressure;BME280_temperature;BME280_humidity;BME280_pressure;Samples;Min_cycle;Max_cycle;Signal;HPM_P1;HPM_P2
2023/07/06 00:00:54;;;;;;;4.97;4.15;;;15.20;99.90;;;;;;5064085;28;20461;-81
2023/07/06 00:03:20;;;;;;;4.50;3.90;;;15.20;99.90;;;;;;5071899;28;20378;-81
2023/07/06 00:05:46;;;;;;;3.50;3.20;;;15.10;99.90;;;;;;5069291;28;20419;-81
2023/07/06 00:08:13;;;;;;;4.00;3.60;;;14.30;99.90;;;;;;5080565;28;20384;-81
2023/07/06 00:10:42;;;;;;;5.38;4.00;;;15.10;99.90;;;;;;5080369;28;20854;-81
2023/07/06 00:13:08;;;;;;;4.78;3.83;;;15.10;99.90;;;;;;5062019;28;20400;-81
2023/07/06 00:15:34;;;;;;;4.05;3.20;;;15.10;99.90;;;;;;5076973;28;20403;-81
2023/07/06 00:18:04;;;;;;;4.40;3.50;;;15.10;99.90;;;;;;5079989;28;20411;-81
2023/07/06 00:20:37;;;;;;;4.73;3.63;;;15.10;99.90;;;;;;5080227;28;20412;-81
2023/07/06 00:23:08;;;;;;;4.57;4.10;;;15.10;99.90;;;;;;5083563;28;21098;-81
2023/07/06 00:25:34;;;;;;;3.95;3.33;;;15.10;99.90;;;;;;5080293;28;20424;-81
2023/07/06 00:28:02;;;;;;;4.15;3.42;;;15.00;99.90;;;;;;5085479;28;20399;-81
2023/07/06 00:33:13;;;;;;;3.70;3.30;;;14.90;99.90;;;;;;5083522;28;20398;-81
2023/07/06 00:35:40;;;;;;;3.42;3.13;;;14.80;99.90;;;;;;5079900;28;20403;-81
2023/07/06 00:38:12;;;;;;;3.90;3.10;;;14.90;99.90;;;;;;5080659;28;20447;-81
2023/07/06 00:40:39;;;;;;;4.28;3.83;;;14.80;99.90;;;;;;5079965;28;20380;-81
2023/07/06 00:43:09;;;;;;;4.85;3.80;;;15.20;99.90;;;;;;5079836;28;20833;-81
2023/07/06 00:45:36;;;;;;;5.75;3.70;;;14.70;99.90;;;;;;5077234;28;20419;-81
2023/07/06 00:48:01;;;;;;;4.10;3.70;;;14.70;99.90;;;;;;5078806;28;20882;-81
2023/07/06 00:50:29;;;;;;;5.35;3.30;;;14.80;99.90;;;;;;5077280;28;20384;-81
2023/07/06 00:53:03;;;;;;;4.20;3.47;;;14.80;99.90;;;;;;5067854;28;20396;-81
2023/07/06 00:55:33;;;;;;;3.80;3.37;;;14.80;99.90;;;;;;5080747;28;20396;-80
2023/07/06 00:58:10;;;;;;;3.65;3.35;;;14.70;99.90;;;;;;5081622;28;20407;-81
2023/07/06 01:00:37;;;;;;;5.57;4.07;;;14.70;99.90;;;;;;5079410;28;20950;-81
2023/07/06 01:03:03;;;;;;;5.00;3.80;;;14.50;99.90;;;;;;5081180;28;20395;-81
2023/07/06 01:05:30;;;;;;;4.80;4.00;;;14.50;99.90;;;;;;5080416;28;20403;-81
2023/07/06 01:08:08;;;;;;;4.00;3.60;;;14.60;99.90;;;;;;5081246;28;20402;-80
2023/07/06 01:10:34;;;;;;;5.40;3.50;;;14.50;99.90;;;;;;5078632;28;20394;-80
2023/07/06 01:13:00;;;;;;;4.82;3.47;;;14.30;99.90;;;;;;5062678;28;20922;-80
2023/07/06 01:15:31;;;;;;;4.45;3.55;;;14.30;99.90;;;;;;5079924;28;20380;-81
2023/07/06 01:18:16;;;;;;;4.07;3.67;;;14.30;99.90;;;;;;5079537;28;20535;-81
2023/07/06 01:21:14;;;;;;;3.80;3.33;;;14.30;99.90;;;;;;5079328;28;20376;-80
2023/07/06 01:24:07;;;;;;;4.38;3.90;;;14.10;99.90;;;;;;5040274;28;20391;-80
2023/07/06 01:26:48;;;;;;;4.70;3.72;;;14.10;99.90;;;;;;5077856;28;20392;-80
2023/07/06 01:29:25;;;;;;;4.93;3.85;;;14.10;99.90;;;;;;5080251;28;20445;-80
2023/07/06 01:32:04;;;;;;;4.40;4.00;;;14.00;99.90;;;;;;5079564;28;20411;-81
2023/07/06 01:34:38;;;;;;;5.80;3.97;;;13.90;99.90;;;;;;5079814;28;20391;-81
2023/07/06 01:37:26;;;;;;;5.22;3.80;;;13.90;99.90;;;;;;5079370;28;20414;-81
2023/07/06 01:39:53;;;;;;;5.10;3.97;;;14.00;99.90;;;;;;5078952;28;20520;-80
2023/07/06 01:42:29;;;;;;;5.68;3.70;;;13.90;99.90;;;;;;5078138;28;20404;-81
2023/07/06 01:45:18;;;;;;;4.43;4.03;;;13.90;99.90;;;;;;5079429;28;20466;-81
2023/07/06 01:47:47;;;;;;;4.97;3.90;;;13.80;99.90;;;;;;5077291;28;20467;-81
2023/07/06 01:50:14;;;;;;;4.55;4.15;;;13.70;99.90;;;;;;5090361;28;20409;-80
2023/07/06 01:53:14;;;;;;;4.85;4.10;;;13.80;99.90;;;;;;5080280;28;20476;-81
2023/07/06 01:55:45;;;;;;;4.75;4.30;;;13.70;99.90;;;;;;5051395;28;20392;-81
2023/07/06 01:58:33;;;;;;;5.80;4.47;;;13.60;99.90;;;;;;5088031;28;20767;-80
2023/07/06 02:01:04;;;;;;;5.27;4.20;;;13.60;99.90;;;;;;5087206;28;20398;-81
2023/07/06 02:03:30;;;;;;;5.63;4.32;;;13.70;99.90;;;;;;5088512;28;20422;-81
2023/07/06 02:05:56;;;;;;;4.70;4.00;;;13.70;99.90;;;;;;5079152;28;20380;-81
2023/07/06 02:08:23;;;;;;;4.70;3.90;;;13.70;99.90;;;;;;5080342;28;20388;-81
2023/07/06 02:10:50;;;;;;;4.03;3.63;;;14.70;99.90;;;;;;5080248;28;21068;-81
2023/07/06 02:13:17;;;;;;;4.55;3.97;;;13.60;99.90;;;;;;5078321;28;20398;-81
2023/07/06 02:15:43;;;;;;;4.45;3.90;;;13.60;99.90;;;;;;5077342;28;20396;-81
2023/07/06 02:18:09;;;;;;;5.45;4.40;;;13.50;99.90;;;;;;5077574;28;20400;-81
2023/07/06 02:20:34;;;;;;;6.40;4.30;;;13.50;99.90;;;;;;5079148;28;20391;-81
2023/07/06 02:23:00;;;;;;;5.50;4.10;;;13.40;99.90;;;;;;5079222;28;20419;-81
2023/07/06 02:25:26;;;;;;;5.50;4.25;;;13.50;99.90;;;;;;5082201;28;20388;-81
2023/07/06 02:27:51;;;;;;;4.88;4.20;;;13.40;99.90;;;;;;5082489;28;20394;-81
2023/07/06 02:30:17;;;;;;;5.50;4.10;;;13.40;99.90;;;;;;5080514;28;20399;-81
2023/07/06 02:32:43;;;;;;;4.43;3.80;;;13.30;99.90;;;;;;5080389;28;20384;-81
2023/07/06 02:35:10;;;;;;;5.30;4.20;;;13.40;99.90;;;;;;5071432;28;20414;-81
2023/07/06 02:37:38;;;;;;;5.70;4.30;;;13.30;99.90;;;;;;5079923;28;20403;-81
2023/07/06 02:40:08;;;;;;;5.70;4.20;;;13.30;99.90;;;;;;5082856;28;20467;-81
2023/07/06 02:42:35;;;;;;;4.83;4.27;;;13.30;99.90;;;;;;5080294;28;20408;-81
2023/07/06 02:45:00;;;;;;;4.80;4.30;;;13.30;99.90;;;;;;5079967;28;20399;-81
2023/07/06 02:47:26;;;;;;;5.47;4.40;;;13.20;99.90;;;;;;5080011;28;20486;-81
2023/07/06 02:49:52;;;;;;;5.70;4.25;;;13.20;99.90;;;;;;5080630;28;20406;-81
2023/07/06 02:52:17;;;;;;;5.30;4.10;;;13.20;99.90;;;;;;5080612;28;20410;-81
2023/07/06 02:54:44;;;;;;;6.07;4.27;;;13.20;99.90;;;;;;5080421;28;20815;-81
2023/07/06 02:57:09;;;;;;;4.60;3.90;;;13.30;99.90;;;;;;5079370;28;20433;-81
2023/07/06 02:59:35;;;;;;;7.20;4.40;;;13.30;99.90;;;;;;5079941;28;20862;-81
2023/07/06 03:02:00;;;;;;;4.83;3.83;;;13.30;99.90;;;;;;5080656;28;20395;-81
2023/07/06 03:04:27;;;;;;;4.60;4.20;;;13.20;99.90;;;;;;5081175;28;20434;-81
2023/07/06 03:06:55;;;;;;;5.10;4.30;;;13.10;99.90;;;;;;5079717;28;20396;-81
2023/07/06 03:09:23;;;;;;;4.90;4.40;;;13.10;99.90;;;;;;5081442;28;20384;-81
2023/07/06 03:11:49;;;;;;;4.90;4.40;;;13.20;99.90;;;;;;5075655;28;21058;-81
2023/07/06 03:14:15;;;;;;;5.57;4.18;;;13.10;99.90;;;;;;5066388;28;20389;-81
2023/07/06 03:16:41;;;;;;;5.55;4.63;;;13.00;99.90;;;;;;5072931;28;20483;-81
2023/07/06 03:19:09;;;;;;;4.60;4.20;;;13.10;99.90;;;;;;5083004;28;20403;-81
2023/07/06 03:21:35;;;;;;;5.78;4.25;;;13.10;99.90;;;;;;5083960;28;20422;-81
2023/07/06 03:24:01;;;;;;;4.75;4.18;;;13.10;99.90;;;;;;5086922;28;20905;-80
2023/07/06 03:26:26;;;;;;;5.53;4.38;;;13.10;99.90;;;;;;5085383;28;20406;-81
2023/07/06 03:28:52;;;;;;;8.40;4.38;;;13.00;99.90;;;;;;5082535;28;20387;-81
2023/07/06 03:31:19;;;;;;;5.35;4.63;;;13.10;99.90;;;;;;5086217;28;20874;-81
2023/07/06 03:33:45;;;;;;;4.30;3.90;;;13.00;99.90;;;;;;5083873;28;20392;-81
2023/07/06 03:36:11;;;;;;;5.40;4.70;;;12.90;99.90;;;;;;5074430;22;20441;-78
2023/07/06 03:38:36;;;;;;;5.37;4.70;;;13.00;99.90;;;;;;5054468;28;20937;-78
2023/07/06 03:41:03;;;;;;;4.97;4.43;;;13.00;99.90;;;;;;5056554;28;20895;-79
2023/07/06 03:43:29;;;;;;;6.20;4.90;;;13.00;99.90;;;;;;5073982;28;20919;-79
2023/07/06 03:45:54;;;;;;;4.97;4.20;;;13.00;99.90;;;;;;5073714;28;20380;-79
2023/07/06 03:48:21;;;;;;;5.50;4.53;;;12.90;99.90;;;;;;5074565;28;20380;-79
2023/07/06 03:50:52;;;;;;;5.70;4.60;;;13.00;99.90;;;;;;5074576;28;20387;-79
2023/07/06 03:53:18;;;;;;;4.57;4.00;;;13.00;99.90;;;;;;5054900;28;20393;-79
2023/07/06 03:55:44;;;;;;;5.10;4.53;;;12.90;99.90;;;;;;5054016;28;20407;-78
2023/07/06 03:58:10;;;;;;;5.63;4.40;;;12.90;99.90;;;;;;5055708;28;20930;-79
2023/07/06 04:00:36;;;;;;;4.35;3.95;;;13.00;99.90;;;;;;5064660;28;20410;-79
2023/07/06 04:03:03;;;;;;;5.18;4.40;;;12.90;99.90;;;;;;5073649;28;20392;-78
2023/07/06 04:05:48;;;;;;;4.93;4.22;;;12.80;99.90;;;;;;5073403;28;20386;-79
2023/07/06 04:08:20;;;;;;;5.10;4.60;;;12.90;99.90;;;;;;5070447;28;20451;-79
2023/07/06 04:10:45;;;;;;;7.32;4.90;;;13.00;99.90;;;;;;5052199;28;20385;-79
2023/07/06 04:13:13;;;;;;;6.37;4.80;;;12.90;99.90;;;;;;5069753;28;20392;-79
2023/07/06 04:15:45;;;;;;;5.60;5.00;;;12.80;99.90;;;;;;5073319;28;20391;-79
2023/07/06 04:18:10;;;;;;;4.88;4.32;;;12.80;99.90;;;;;;5073077;28;20490;-78
2023/07/06 04:20:36;;;;;;;4.85;4.35;;;12.90;99.90;;;;;;5074163;28;20403;-78
2023/07/06 04:23:03;;;;;;;5.40;4.35;;;12.90;99.90;;;;;;5058431;28;20434;-78
2023/07/06 04:25:31;;;;;;;5.93;4.40;;;12.80;99.90;;;;;;5058678;28;20401;-79
2023/07/06 04:27:58;;;;;;;6.00;5.38;;;12.90;99.90;;;;;;5053277;28;20478;-79
2023/07/06 04:30:25;;;;;;;4.57;4.18;;;12.90;99.90;;;;;;5053067;28;20402;-79
2023/07/06 04:32:51;;;;;;;5.70;4.20;;;12.90;99.90;;;;;;5053678;28;20432;-79
2023/07/06 04:35:21;;;;;;;4.63;4.17;;;13.00;99.90;;;;;;5052277;28;20425;-77
2023/07/06 04:37:48;;;;;;;4.80;4.30;;;13.00;99.90;;;;;;5052338;28;20506;-77
2023/07/06 04:40:18;;;;;;;6.80;4.70;;;13.00;99.90;;;;;;5052588;28;20388;-77
2023/07/06 04:42:46;;;;;;;5.05;4.20;;;13.00;99.90;;;;;;5051128;28;20390;-77
2023/07/06 04:45:13;;;;;;;6.13;4.53;;;13.20;99.90;;;;;;5051200;28;20401;-78
2023/07/06 04:47:40;;;;;;;5.07;4.55;;;13.30;99.90;;;;;;5050050;28;20389;-79
2023/07/06 04:50:07;;;;;;;4.88;4.32;;;13.30;99.90;;;;;;5058635;28;20392;-78
2023/07/06 04:52:37;;;;;;;6.03;4.70;;;13.40;99.90;;;;;;5053228;28;20404;-78
2023/07/06 04:55:05;;;;;;;5.00;3.80;;;13.40;99.90;;;;;;5053029;28;20431;-78
2023/07/06 04:57:31;;;;;;;5.82;4.00;;;13.40;99.90;;;;;;5052773;28;20437;-78
2023/07/06 04:59:57;;;;;;;5.72;4.50;;;13.70;99.90;;;;;;5053263;28;20879;-78
2023/07/06 05:02:22;;;;;;;6.80;4.60;;;13.60;99.90;;;;;;5053754;28;20426;-78
2023/07/06 05:04:49;;;;;;;5.10;4.50;;;13.40;99.90;;;;;;5053652;28;20392;-78
2023/07/06 05:07:15;;;;;;;5.45;4.68;;;13.70;99.90;;;;;;5050084;28;20733;-78
2023/07/06 05:09:41;;;;;;;5.30;4.53;;;13.70;99.90;;;;;;5047980;28;20535;-78
2023/07/06 05:12:08;;;;;;;5.40;4.30;;;13.80;99.90;;;;;;5050596;28;20419;-78
2023/07/06 05:14:34;;;;;;;5.20;4.70;;;13.90;99.90;;;;;;5048426;28;20411;-77
2023/07/06 05:17:00;;;;;;;5.30;4.17;;;13.90;99.90;;;;;;5048309;28;20464;-77
2023/07/06 05:19:27;;;;;;;4.55;4.10;;;13.90;99.90;;;;;;5052222;28;20385;-78
2023/07/06 05:21:55;;;;;;;6.00;4.40;;;13.90;99.90;;;;;;5050760;28;20440;-78
2023/07/06 05:24:21;;;;;;;5.85;4.40;;;14.00;99.90;;;;;;5050626;28;20459;-78
2023/07/06 05:26:46;;;;;;;5.35;4.00;;;13.70;99.90;;;;;;5055297;28;20401;-78
2023/07/06 05:29:12;;;;;;;5.40;4.30;;;14.30;99.90;;;;;;5052153;28;20401;-78
2023/07/06 05:31:38;;;;;;;6.10;4.80;;;14.40;99.90;;;;;;5051828;28;20386;-78
2023/07/06 05:34:03;;;;;;;6.40;4.83;;;14.40;99.90;;;;;;5052857;28;20381;-78
2023/07/06 05:36:29;;;;;;;5.13;4.35;;;14.40;99.90;;;;;;5052615;28;20435;-77
2023/07/06 05:38:54;;;;;;;5.90;4.40;;;14.40;99.90;;;;;;5053003;28;20426;-77
2023/07/06 05:41:20;;;;;;;5.63;4.60;;;14.40;99.90;;;;;;5050381;28;21014;-77
2023/07/06 05:43:45;;;;;;;5.20;4.30;;;14.50;99.90;;;;;;5050808;28;20397;-77
2023/07/06 05:46:11;;;;;;;5.35;4.68;;;14.60;99.90;;;;;;5051755;28;20412;-77
2023/07/06 05:48:36;;;;;;;6.00;4.13;;;14.90;99.90;;;;;;5052046;28;20458;-77
2023/07/06 05:51:03;;;;;;;4.53;4.00;;;14.90;99.90;;;;;;5051240;28;21036;-77
2023/07/06 05:53:28;;;;;;;5.32;4.30;;;15.00;99.90;;;;;;5049711;28;20879;-77
2023/07/06 05:55:54;;;;;;;4.75;3.75;;;15.30;99.90;;;;;;5050662;28;20394;-77
2023/07/06 05:58:19;;;;;;;4.93;3.90;;;15.20;99.90;;;;;;5051990;28;20899;-77
2023/07/06 06:00:45;;;;;;;6.97;4.70;;;15.20;99.90;;;;;;5051941;28;20389;-76
2023/07/06 06:03:11;;;;;;;5.43;3.97;;;15.30;99.90;;;;;;5052691;28;20386;-77
2023/07/06 06:05:37;;;;;;;5.10;3.90;;;15.40;99.90;;;;;;5050099;28;20921;-76
2023/07/06 06:08:02;;;;;;;4.60;4.00;;;15.50;99.90;;;;;;5052320;28;20402;-78
2023/07/06 06:10:31;;;;;;;6.40;4.30;;;15.50;99.90;;;;;;5051202;28;20902;-78
2023/07/06 06:12:57;;;;;;;5.70;4.20;;;15.60;99.90;;;;;;5070404;28;20445;-77
2023/07/06 06:15:23;;;;;;;4.28;3.55;;;15.60;99.90;;;;;;5072413;28;20816;-76
2023/07/06 06:17:50;;;;;;;6.30;4.40;;;15.60;99.90;;;;;;5072070;28;20403;-78
2023/07/06 06:20:16;;;;;;;5.65;4.60;;;15.70;99.90;;;;;;5071354;28;20388;-78
2023/07/06 06:22:41;;;;;;;4.72;3.83;;;15.80;99.90;;;;;;5071189;28;20868;-77
2023/07/06 06:25:07;;;;;;;4.80;4.30;;;16.00;99.90;;;;;;5067587;28;20521;-77
2023/07/06 06:27:33;;;;;;;4.20;3.80;;;16.00;99.90;;;;;;5070052;28;20416;-77
2023/07/06 06:29:59;;;;;;;5.03;4.00;;;16.10;99.90;;;;;;5070262;28;20395;-77
2023/07/06 06:32:25;;;;;;;6.13;4.33;;;16.10;99.90;;;;;;5072177;28;20392;-77
2023/07/06 06:34:51;;;;;;;4.90;4.10;;;16.10;99.90;;;;;;5069536;28;20486;-77
2023/07/06 06:37:16;;;;;;;5.40;4.10;;;16.20;99.90;;;;;;5070081;28;20406;-77
2023/07/06 06:39:43;;;;;;;4.77;3.63;;;16.20;99.90;;;;;;5062889;28;20826;-77
2023/07/06 06:42:09;;;;;;;5.60;4.70;;;16.20;99.90;;;;;;5049717;28;20459;-76
2023/07/06 06:44:35;;;;;;;4.18;3.78;;;16.30;99.90;;;;;;5052404;28;20468;-78
2023/07/06 06:47:04;;;;;;;7.70;4.10;;;16.40;99.90;;;;;;5051914;28;20392;-77
2023/07/06 06:49:30;;;;;;;5.18;4.25;;;16.60;99.90;;;;;;5051521;28;20385;-78
2023/07/06 06:51:55;;;;;;;5.65;4.15;;;16.70;99.90;;;;;;5053004;28;20802;-78
2023/07/06 06:54:21;;;;;;;5.35;4.53;;;16.90;99.90;;;;;;5053557;28;20397;-78
2023/07/06 06:56:46;;;;;;;4.73;3.87;;;16.90;99.90;;;;;;5051452;28;20848;-78
2023/07/06 06:59:13;;;;;;;4.65;3.53;;;17.10;99.90;;;;;;5065448;28;20389;-76
2023/07/06 07:01:40;;;;;;;5.40;4.72;;;17.40;99.90;;;;;;5067051;28;20398;-77
2023/07/06 07:04:07;;;;;;;6.00;4.10;;;17.40;99.90;;;;;;5058796;28;20771;-77
2023/07/06 07:06:32;;;;;;;5.55;4.47;;;17.30;99.90;;;;;;5058313;28;20400;-77
2023/07/06 07:09:00;;;;;;;5.28;4.28;;;17.30;99.90;;;;;;5057451;28;20429;-77
2023/07/06 07:11:25;;;;;;;5.75;4.25;;;17.20;99.90;;;;;;5058944;28;20401;-78
2023/07/06 07:13:53;;;;;;;4.55;4.07;;;17.10;99.90;;;;;;5069835;28;20395;-78
2023/07/06 07:16:19;;;;;;;4.10;3.70;;;17.10;99.90;;;;;;5062289;28;20387;-78
2023/07/06 07:18:44;;;;;;;4.00;3.60;;;17.10;99.90;;;;;;5071118;28;20410;-78
2023/07/06 07:21:12;;;;;;;3.23;2.93;;;17.30;99.90;;;;;;5072014;28;20379;-78
2023/07/06 07:23:43;;;;;;;5.03;3.60;;;17.60;99.90;;;;;;5078029;28;20430;-76
2023/07/06 07:26:20;;;;;;;4.50;3.80;;;17.50;99.90;;;;;;5092399;28;20764;-77
2023/07/06 07:28:50;;;;;;;4.43;4.00;;;17.60;99.90;;;;;;5094692;28;20408;-76
2023/07/06 07:31:17;;;;;;;3.53;3.15;;;17.90;99.90;;;;;;5056247;28;20405;-75
2023/07/06 07:33:43;;;;;;;5.57;3.67;;;18.00;99.90;;;;;;5079200;28;20407;-76
2023/07/06 07:36:11;;;;;;;4.53;3.60;;;18.00;99.90;;;;;;5095216;28;20412;-76
2023/07/06 07:38:37;;;;;;;3.97;3.58;;;18.20;99.90;;;;;;5095521;28;20438;-75
2023/07/06 07:41:06;;;;;;;5.53;3.40;;;18.40;99.90;;;;;;5095607;28;20541;-73
2023/07/06 07:43:33;;;;;;;3.80;3.30;;;18.30;99.90;;;;;;5096109;28;20384;-74
2023/07/06 07:46:04;;;;;;;4.97;3.55;;;18.50;99.90;;;;;;5095458;28;20399;-74
2023/07/06 07:48:35;;;;;;;4.37;3.40;;;18.50;99.90;;;;;;5094416;28;20455;-74
2023/07/06 07:51:03;;;;;;;4.32;3.40;;;18.50;99.90;;;;;;5095266;28;20405;-74
2023/07/06 07:53:35;;;;;;;4.72;3.10;;;18.60;99.90;;;;;;5095566;28;20364;-73
2023/07/06 07:56:01;;;;;;;4.53;3.10;;;18.70;99.90;;;;;;5097146;28;20391;-74
2023/07/06 07:58:27;;;;;;;3.10;2.80;;;18.70;99.90;;;;;;5095181;28;20412;-75
2023/07/06 08:00:57;;;;;;;3.45;3.08;;;18.80;99.90;;;;;;5095293;28;20405;-75
2023/07/06 08:03:25;;;;;;;4.30;2.60;;;18.80;99.90;;;;;;5094074;28;20528;-75
2023/07/06 08:05:52;;;;;;;3.97;3.20;;;18.90;99.90;;;;;;5098756;28;20404;-75
2023/07/06 08:08:18;;;;;;;3.03;2.50;;;18.80;99.90;;;;;;5085620;28;20386;-75
2023/07/06 08:10:45;;;;;;;3.78;2.90;;;18.80;99.90;;;;;;5079106;28;20422;-74
2023/07/06 08:13:11;;;;;;;5.88;3.28;;;19.00;99.90;;;;;;5077216;28;20409;-76
2023/07/06 08:15:39;;;;;;;3.45;2.83;;;19.00;99.90;;;;;;5078673;28;20500;-75
2023/07/06 08:18:06;;;;;;;3.25;2.88;;;19.20;99.90;;;;;;5079183;28;20436;-75
2023/07/06 08:20:32;;;;;;;4.68;2.72;;;19.20;99.90;;;;;;5078408;28;20428;-76
2023/07/06 08:23:02;;;;;;;3.63;2.65;;;19.40;99.90;;;;;;5084528;28;20394;-76
2023/07/06 08:25:28;;;;;;;3.97;2.50;;;19.50;99.90;;;;;;5097184;28;20360;-74
2023/07/06 08:27:57;;;;;;;3.57;2.40;;;19.50;99.90;;;;;;5098679;28;20383;-75
2023/07/06 08:30:23;;;;;;;4.50;2.40;;;19.60;99.90;;;;;;5079442;28;20399;-76
2023/07/06 08:32:50;;;;;;;3.10;2.60;;;19.50;99.90;;;;;;5073621;28;20380;-76
2023/07/06 08:35:18;;;;;;;2.40;2.20;;;19.50;99.90;;;;;;5072673;28;20387;-76
2023/07/06 08:37:45;;;;;;;5.15;2.60;;;19.50;99.90;;;;;;5071980;28;20412;-77
2023/07/06 08:40:17;;;;;;;2.80;2.45;;;19.60;99.90;;;;;;5072090;28;21012;-78
2023/07/06 08:42:47;;;;;;;2.67;2.30;;;19.70;99.90;;;;;;5059091;28;20451;-78
2023/07/06 08:45:21;;;;;;;3.55;2.50;;;19.70;99.90;;;;;;5053070;28;20381;-77
2023/07/06 08:47:48;;;;;;;2.83;2.35;;;19.80;99.90;;;;;;5052431;28;20449;-78
2023/07/06 08:50:20;;;;;;;3.78;2.60;;;19.90;99.90;;;;;;5053131;28;20389;-78
2023/07/06 08:52:46;;;;;;;5.40;2.60;;;20.00;99.90;;;;;;5052957;28;20415;-77
2023/07/06 08:55:13;;;;;;;4.40;2.93;;;20.20;99.90;;;;;;5053166;28;20389;-77
2023/07/06 08:57:40;;;;;;;3.50;2.50;;;20.30;99.90;;;;;;5060928;28;20407;-78
2023/07/06 09:00:16;;;;;;;4.35;2.60;;;20.20;99.90;;;;;;5062555;28;20429;-77
2023/07/06 09:02:42;;;;;;;4.30;2.60;;;20.40;99.90;;;;;;5052198;28;20404;-76
2023/07/06 09:05:15;;;;;;;3.10;2.67;;;20.20;99.90;;;;;;5050978;28;20385;-76
2023/07/06 09:07:44;;;;;;;3.80;2.50;;;20.20;99.90;;;;;;5051699;28;20381;-76
2023/07/06 09:10:12;;;;;;;3.90;2.70;;;20.30;99.90;;;;;;5053321;28;20967;-76
2023/07/06 09:12:39;;;;;;;3.00;2.60;;;20.60;99.90;;;;;;5072906;28;20403;-76
2023/07/06 09:15:08;;;;;;;2.70;2.50;;;20.80;99.90;;;;;;5074283;28;20433;-76
2023/07/06 09:17:34;;;;;;;2.72;2.20;;;21.00;99.90;;;;;;5063948;28;20490;-76
2023/07/06 09:20:03;;;;;;;3.00;2.42;;;21.10;99.90;;;;;;5051994;28;20390;-76
2023/07/06 09:22:29;;;;;;;3.10;2.60;;;21.00;99.90;;;;;;5054433;28;20447;-76
2023/07/06 09:25:01;;;;;;;2.83;2.47;;;21.10;99.90;;;;;;5056047;28;20783;-76
2023/07/06 09:27:26;;;;;;;4.43;2.40;;;20.90;99.90;;;;;;5056153;28;20939;-75
2023/07/06 09:30:03;;;;;;;3.00;2.40;;;21.10;99.90;;;;;;5050740;28;20480;-77
2023/07/06 09:32:32;;;;;;;3.60;2.45;;;21.30;99.90;;;;;;5051929;28;20389;-77
2023/07/06 09:35:11;;;;;;;2.88;2.50;;;21.20;99.90;;;;;;5078541;22;20825;-82
2023/07/06 09:37:47;;;;;;;2.60;2.40;;;21.10;99.90;;;;;;5075527;28;20408;-82
2023/07/06 09:40:17;;;;;;;3.78;2.42;;;20.90;99.90;;;;;;5074471;28;20380;-81
2023/07/06 09:42:44;;;;;;;3.60;2.50;;;21.10;99.90;;;;;;5074932;28;20382;-82
2023/07/06 09:45:24;;;;;;;4.18;2.42;;;21.30;99.90;;;;;;5077359;28;20410;-82
2023/07/06 09:48:05;;;;;;;4.00;2.70;;;21.50;99.90;;;;;;5069824;28;20422;-82
2023/07/06 09:50:37;;;;;;;3.80;2.80;;;21.50;99.90;;;;;;5066886;28;20384;-82
2023/07/06 09:53:06;;;;;;;3.80;2.30;;;21.50;99.90;;;;;;5075829;28;20432;-83
2023/07/06 09:55:31;;;;;;;2.50;2.30;;;21.30;99.90;;;;;;5088616;28;20380;-82
2023/07/06 09:57:59;;;;;;;3.23;2.93;;;21.50;99.90;;;;;;5068843;28;20399;-81
2023/07/06 10:00:44;;;;;;;4.10;3.00;;;21.60;99.90;;;;;;5065687;28;20414;-80
2023/07/06 10:03:28;;;;;;;3.70;2.67;;;21.60;99.90;;;;;;5085279;28;20475;-80
2023/07/06 10:06:44;;;;;;;2.93;2.30;;;22.00;99.90;;;;;;5088432;28;20424;-80
2023/07/06 10:09:24;;;;;;;3.00;2.30;;;21.90;99.90;;;;;;5084634;28;20407;-83
2023/07/06 10:11:55;;;;;;;2.25;2.05;;;22.00;99.90;;;;;;5089815;28;20383;-83
2023/07/06 10:14:37;;;;;;;3.08;2.30;;;22.10;99.90;;;;;;5089378;28;20383;-83
2023/07/06 10:17:35;;;;;;;4.10;2.28;;;22.10;99.90;;;;;;5089154;28;20402;-82
2023/07/06 10:20:12;;;;;;;2.70;2.15;;;22.10;99.90;;;;;;5090765;28;20380;-83
2023/07/06 10:23:24;;;;;;;4.90;2.58;;;22.50;99.90;;;;;;5088134;28;20375;-83
2023/07/06 10:26:07;;;;;;;3.30;3.00;;;22.30;99.90;;;;;;5087254;28;20877;-83
2023/07/06 10:28:40;;;;;;;2.70;2.50;;;22.40;99.90;;;;;;5069252;28;20393;-83
2023/07/06 10:31:11;;;;;;;2.90;2.40;;;22.40;99.90;;;;;;5077550;28;20392;-84
2023/07/06 10:33:47;;;;;;;3.00;2.70;;;22.60;99.90;;;;;;5089074;28;20384;-83
2023/07/06 10:36:15;;;;;;;3.30;2.67;;;22.90;99.90;;;;;;5087086;28;20395;-83
2023/07/06 10:38:41;;;;;;;2.97;2.60;;;22.70;99.90;;;;;;5068981;28;20407;-82
2023/07/06 10:41:10;;;;;;;3.38;2.65;;;23.10;99.90;;;;;;5069297;28;20384;-82
2023/07/06 10:43:40;;;;;;;3.80;2.67;;;23.30;99.90;;;;;;5088899;28;20371;-82
2023/07/06 10:46:26;;;;;;;2.80;2.50;;;23.30;99.90;;;;;;5089186;28;20384;-82
2023/07/06 10:48:57;;;;;;;3.80;2.60;;;23.50;99.90;;;;;;5070942;28;20402;-81
2023/07/06 10:51:24;;;;;;;3.20;2.60;;;23.70;99.90;;;;;;5071397;28;20460;-82
2023/07/06 10:54:28;;;;;;;2.88;2.63;;;23.90;99.90;;;;;;5088520;28;20388;-83
2023/07/06 10:57:11;;;;;;;3.20;2.40;;;23.70;99.90;;;;;;5081633;28;20412;-82
2023/07/06 10:59:44;;;;;;;3.30;2.50;;;23.50;99.90;;;;;;5077238;28;20403;-81
2023/07/06 11:02:38;;;;;;;3.80;2.60;;;23.40;99.90;;;;;;5075886;28;20886;-82
2023/07/06 11:05:19;;;;;;;3.00;2.65;;;23.40;99.90;;;;;;5070751;28;20391;-82
2023/07/06 11:07:55;;;;;;;3.17;2.63;;;23.60;99.90;;;;;;5088816;28;20384;-82
2023/07/06 11:10:25;;;;;;;3.80;2.50;;;23.70;99.90;;;;;;5085558;28;20396;-82
2023/07/06 11:12:57;;;;;;;3.50;2.60;;;23.50;99.90;;;;;;5088307;28;20402;-81
2023/07/06 11:15:56;;;;;;;3.08;2.75;;;23.30;99.90;;;;;;5068367;28;20388;-82
2023/07/06 11:21:52;;;;;;;4.45;2.90;;;23.40;99.90;;;;;;5024789;28;20427;-80
2023/07/06 11:24:23;;;;;;;3.30;2.43;;;23.80;99.90;;;;;;5031289;28;20409;-79
2023/07/06 11:27:04;;;;;;;2.30;2.10;;;23.90;99.90;;;;;;5025808;28;20394;-80
2023/07/06 11:29:30;;;;;;;2.75;2.40;;;24.00;99.90;;;;;;5037675;28;20387;-80
2023/07/06 11:32:16;;;;;;;2.67;2.30;;;24.10;99.90;;;;;;5051005;28;20407;-80
2023/07/06 11:35:07;;;;;;;3.00;2.70;;;24.80;99.90;;;;;;5050694;28;20391;-80
2023/07/06 11:37:54;;;;;;;3.28;2.40;;;25.20;99.90;;;;;;5037345;28;20816;-80
2023/07/06 11:40:35;;;;;;;3.58;2.88;;;25.50;99.90;;;;;;5028359;28;20397;-79
2023/07/06 11:43:12;;;;;;;4.80;2.60;;;25.10;99.90;;;;;;5006734;28;20813;-78
2023/07/06 11:45:58;;;;;;;3.10;2.50;;;25.20;99.90;;;;;;5023491;28;20400;-79
2023/07/06 11:49:02;;;;;;;3.40;2.75;;;25.50;99.90;;;;;;5028879;28;20444;-81
2023/07/06 11:51:29;;;;;;;2.97;2.67;;;26.70;99.90;;;;;;5029412;28;20925;-82
2023/07/06 11:53:56;;;;;;;2.70;2.50;;;27.10;99.90;;;;;;5036046;28;20403;-82
2023/07/06 11:59:26;;;;;;;2.87;2.67;;;27.60;99.90;;;;;;5024117;28;20425;-81
2023/07/06 12:01:57;;;;;;;3.17;2.70;;;28.50;99.90;;;;;;5011701;28;20410;-82
2023/07/06 12:04:26;;;;;;;3.13;2.83;;;28.60;99.90;;;;;;5010382;28;20549;-82
2023/07/06 12:06:53;;;;;;;4.55;2.80;;;26.40;99.90;;;;;;5025026;28;20480;-82
2023/07/06 12:09:22;;;;;;;2.80;2.50;;;28.10;99.90;;;;;;5028005;28;20452;-81
2023/07/06 12:12:08;;;;;;;3.35;3.05;;;27.70;99.90;;;;;;5026615;28;20411;-80
2023/07/06 12:14:35;;;;;;;3.60;3.00;;;27.60;99.90;;;;;;5026494;28;20893;-81
2023/07/06 12:17:02;;;;;;;3.70;2.92;;;26.90;99.90;;;;;;5028844;28;20475;-80
2023/07/06 12:19:28;;;;;;;3.30;3.00;;;26.60;99.90;;;;;;5026691;28;20945;-80
2023/07/06 12:21:56;;;;;;;3.17;2.80;;;27.20;99.90;;;;;;5025790;28;20428;-80
2023/07/06 12:24:24;;;;;;;4.30;3.00;;;27.50;99.90;;;;;;5026235;28;20398;-81
2023/07/06 12:27:01;;;;;;;3.00;2.70;;;27.30;99.90;;;;;;5022268;28;20390;-81
2023/07/06 12:29:31;;;;;;;3.67;3.20;;;26.50;99.90;;;;;;5042151;28;20395;-81
2023/07/06 12:32:21;;;;;;;3.13;2.65;;;26.80;99.90;;;;;;5029992;28;20388;-81
2023/07/06 12:34:53;;;;;;;3.20;2.90;;;26.90;99.90;;;;;;5025869;28;20381;-81
2023/07/06 12:37:22;;;;;;;3.10;2.70;;;27.30;99.90;;;;;;5021328;28;20436;-81
2023/07/06 12:39:52;;;;;;;2.95;2.65;;;27.50;99.90;;;;;;5022130;28;20405;-82
2023/07/06 12:42:30;;;;;;;3.20;2.75;;;28.00;99.90;;;;;;5025545;28;20401;-82
2023/07/06 12:44:57;;;;;;;2.88;2.58;;;28.30;99.90;;;;;;5028876;28;20392;-83
2023/07/06 12:47:32;;;;;;;3.40;2.60;;;28.70;99.90;;;;;;5022127;28;20385;-81
2023/07/06 12:50:00;;;;;;;3.40;3.10;;;28.30;99.90;;;;;;5022151;28;20381;-81
2023/07/06 12:52:28;;;;;;;2.90;2.70;;;27.50;99.90;;;;;;5001245;28;20416;-81
2023/07/06 12:54:55;;;;;;;3.38;2.80;;;27.10;99.90;;;;;;5021150;28;20408;-82
2023/07/06 12:57:28;;;;;;;2.85;2.58;;;28.10;99.90;;;;;;5025443;28;20778;-80
2023/07/06 13:00:05;;;;;;;3.80;3.10;;;27.20;99.90;;;;;;5033614;28;20431;-80
2023/07/06 13:02:36;;;;;;;3.78;3.38;;;27.50;99.90;;;;;;5029607;28;20421;-79
2023/07/06 13:05:15;;;;;;;3.60;3.30;;;27.70;99.90;;;;;;5031351;28;20449;-81
2023/07/06 13:07:42;;;;;;;3.40;3.10;;;27.40;99.90;;;;;;5020728;28;20408;-79
2023/07/06 13:10:21;;;;;;;5.28;3.78;;;26.90;99.90;;;;;;5027398;28;20477;-82
2023/07/06 13:12:48;;;;;;;3.30;3.00;;;27.50;99.90;;;;;;5027788;28;20418;-81